Aviation Digital Data Service (ADDS)

Output produced by METARs form (1741 UTC 24 June 2019)
found at http://www.aviationweather.gov/metar/data/
 
METAR text: ETHB 241720Z 11010KT 9999 FEW120 BKN350 29/12 Q1020 BLU+FCST CANCEL
Conditions at: ETHB (BUCKEBURG(GER-AR, DE) observed 1720 UTC 24 June 2019
Temperature: 29.0°C (84°F)
Dewpoint: 12.0°C (54°F) [RH = 35%]
Pressure (altimeter): 30.12 inches Hg (1020.0 mb)
Winds: from the ESE (110 degrees) at 12 MPH (10 knots; 5.1 m/s)
Visibility: 6 or more miles (10+ km)
Ceiling: 35000 feet AGL
Clouds: few clouds at 12000 feet AGL
broken clouds at 35000 feet AGL
Weather: no significant weather observed at this time

METAR text: ETHB 241620Z 14009KT 9999 FEW070 BKN350 30/12 Q1020 BLU+BLU+
Conditions at: ETHB (BUCKEBURG(GER-AR, DE) observed 1620 UTC 24 June 2019
Temperature: 30.0°C (86°F)
Dewpoint: 12.0°C (54°F) [RH = 33%]
Pressure (altimeter): 30.12 inches Hg (1020.0 mb)
Winds: from the SE (140 degrees) at 10 MPH (9 knots; 4.6 m/s)
Visibility: 6 or more miles (10+ km)
Ceiling: 35000 feet AGL
Clouds: few clouds at 7000 feet AGL
broken clouds at 35000 feet AGL
Weather: no significant weather observed at this time

METAR text: ETHB 241520Z 13009KT 9999 FEW070 BKN350 30/12 Q1020 BLU+BLU+
Conditions at: ETHB (BUCKEBURG(GER-AR, DE) observed 1520 UTC 24 June 2019
Temperature: 30.0°C (86°F)
Dewpoint: 12.0°C (54°F) [RH = 33%]
Pressure (altimeter): 30.12 inches Hg (1020.0 mb)
Winds: from the SE (130 degrees) at 10 MPH (9 knots; 4.6 m/s)
Visibility: 6 or more miles (10+ km)
Ceiling: 35000 feet AGL
Clouds: few clouds at 7000 feet AGL
broken clouds at 35000 feet AGL
Weather: no significant weather observed at this time

METAR text: ETHB 241420Z 16010KT 9999 FEW070 BKN350 29/12 Q1020 BLU+BLU+
Conditions at: ETHB (BUCKEBURG(GER-AR, DE) observed 1420 UTC 24 June 2019
Temperature: 29.0°C (84°F)
Dewpoint: 12.0°C (54°F) [RH = 35%]
Pressure (altimeter): 30.12 inches Hg (1020.0 mb)
Winds: from the SSE (160 degrees) at 12 MPH (10 knots; 5.1 m/s)
Visibility: 6 or more miles (10+ km)
Ceiling: 35000 feet AGL
Clouds: few clouds at 7000 feet AGL
broken clouds at 35000 feet AGL
Weather: no significant weather observed at this time

METAR text: ETHB 241320Z 15010KT 9999 FEW070 BKN350 30/12 Q1021 BLU+BLU+
Conditions at: ETHB (BUCKEBURG(GER-AR, DE) observed 1320 UTC 24 June 2019
Temperature: 30.0°C (86°F)
Dewpoint: 12.0°C (54°F) [RH = 33%]
Pressure (altimeter): 30.15 inches Hg (1021.0 mb)
Winds: from the SSE (150 degrees) at 12 MPH (10 knots; 5.1 m/s)
Visibility: 6 or more miles (10+ km)
Ceiling: 35000 feet AGL
Clouds: few clouds at 7000 feet AGL
broken clouds at 35000 feet AGL
Weather: no significant weather observed at this time

METAR text: ETHB 241220Z 14009KT 9999 FEW070 BKN350 29/12 Q1021 BLU+BLU+
Conditions at: ETHB (BUCKEBURG(GER-AR, DE) observed 1220 UTC 24 June 2019
Temperature: 29.0°C (84°F)
Dewpoint: 12.0°C (54°F) [RH = 35%]
Pressure (altimeter): 30.15 inches Hg (1021.0 mb)
Winds: from the SE (140 degrees) at 10 MPH (9 knots; 4.6 m/s)
Visibility: 6 or more miles (10+ km)
Ceiling: 35000 feet AGL
Clouds: few clouds at 7000 feet AGL
broken clouds at 35000 feet AGL
Weather: no significant weather observed at this time

METAR text: ETHB 241120Z 15011KT 9999 FEW060 BKN350 28/12 Q1021 BLU+BLU+
Conditions at: ETHB (BUCKEBURG(GER-AR, DE) observed 1120 UTC 24 June 2019
Temperature: 28.0°C (82°F)
Dewpoint: 12.0°C (54°F) [RH = 37%]
Pressure (altimeter): 30.15 inches Hg (1021.0 mb)
Winds: from the SSE (150 degrees) at 13 MPH (11 knots; 5.7 m/s)
Visibility: 6 or more miles (10+ km)
Ceiling: 35000 feet AGL
Clouds: few clouds at 6000 feet AGL
broken clouds at 35000 feet AGL
Weather: no significant weather observed at this time

METAR text: ETHB 241020Z 14010KT 9999 FEW060 BKN320 27/13 Q1021 BLU+BLU+
Conditions at: ETHB (BUCKEBURG(GER-AR, DE) observed 1020 UTC 24 June 2019
Temperature: 27.0°C (81°F)
Dewpoint: 13.0°C (55°F) [RH = 42%]
Pressure (altimeter): 30.15 inches Hg (1021.0 mb)
Winds: from the SE (140 degrees) at 12 MPH (10 knots; 5.1 m/s)
Visibility: 6 or more miles (10+ km)
Ceiling: 32000 feet AGL
Clouds: few clouds at 6000 feet AGL
broken clouds at 32000 feet AGL
Weather: no significant weather observed at this time

METAR text: ETHB 240920Z 12011KT 9999 BKN320 27/13 Q1022 BLU+BLU+
Conditions at: ETHB (BUCKEBURG(GER-AR, DE) observed 0920 UTC 24 June 2019
Temperature: 27.0°C (81°F)
Dewpoint: 13.0°C (55°F) [RH = 42%]
Pressure (altimeter): 30.18 inches Hg (1022.0 mb)
Winds: from the ESE (120 degrees) at 13 MPH (11 knots; 5.7 m/s)
Visibility: 6 or more miles (10+ km)
Ceiling: 32000 feet AGL
Clouds: broken clouds at 32000 feet AGL
Weather: no significant weather observed at this time

METAR text: ETHB 240820Z 14009G19KT 9999 BKN340 26/12 Q1022 BLU+BLU+
Conditions at: ETHB (BUCKEBURG(GER-AR, DE) observed 0820 UTC 24 June 2019
Temperature: 26.0°C (79°F)
Dewpoint: 12.0°C (54°F) [RH = 42%]
Pressure (altimeter): 30.18 inches Hg (1022.0 mb)
Winds: from the SE (140 degrees) at 10 MPH (9 knots; 4.6 m/s)
gusting to 22 MPH (19 knots; 9.8 m/s)
Visibility: 6 or more miles (10+ km)
Ceiling: 34000 feet AGL
Clouds: broken clouds at 34000 feet AGL
Weather: no significant weather observed at this time

METAR text: ETHB 240720Z 12010KT 9999 FEW160 BKN380 25/12 Q1022 BLU+BLU+
Conditions at: ETHB (BUCKEBURG(GER-AR, DE) observed 0720 UTC 24 June 2019
Temperature: 25.0°C (77°F)
Dewpoint: 12.0°C (54°F) [RH = 44%]
Pressure (altimeter): 30.18 inches Hg (1022.0 mb)
Winds: from the ESE (120 degrees) at 12 MPH (10 knots; 5.1 m/s)
Visibility: 6 or more miles (10+ km)
Ceiling: 38000 feet AGL
Clouds: few clouds at 16000 feet AGL
broken clouds at 38000 feet AGL
Weather: no significant weather observed at this time

METAR text: ETHB 240620Z 04006KT 9999 FEW035 BKN380 22/14 Q1022 BLU+BLU+
Conditions at: ETHB (BUCKEBURG(GER-AR, DE) observed 0620 UTC 24 June 2019
Temperature: 22.0°C (72°F)
Dewpoint: 14.0°C (57°F) [RH = 60%]
Pressure (altimeter): 30.18 inches Hg (1022.0 mb)
Winds: from the NE (40 degrees) at 7 MPH (6 knots; 3.1 m/s)
Visibility: 6 or more miles (10+ km)
Ceiling: 38000 feet AGL
Clouds: few clouds at 3500 feet AGL
broken clouds at 38000 feet AGL
Weather: no significant weather observed at this time

METAR text: ETHB 240520Z 01001KT 9999 BKN400 20/12 Q1022 BLU+BLU+
Conditions at: ETHB (BUCKEBURG(GER-AR, DE) observed 0520 UTC 24 June 2019
Temperature: 20.0°C (68°F)
Dewpoint: 12.0°C (54°F) [RH = 60%]
Pressure (altimeter): 30.18 inches Hg (1022.0 mb)
Winds: from the N (10 degrees) at 1 MPH (1 knots; 0.5 m/s)
Visibility: 6 or more miles (10+ km)
Ceiling: 40000 feet AGL
Clouds: broken clouds at 40000 feet AGL
Weather: no significant weather observed at this time

METAR text: ETHB 240420Z 03002KT 9999 BKN350 17/11 Q1022 BLU+BLU+
Conditions at: ETHB (BUCKEBURG(GER-AR, DE) observed 0420 UTC 24 June 2019
Temperature: 17.0°C (63°F)
Dewpoint: 11.0°C (52°F) [RH = 68%]
Pressure (altimeter): 30.18 inches Hg (1022.0 mb)
Winds: from the NNE (30 degrees) at 2 MPH (2 knots; 1.0 m/s)
Visibility: 6 or more miles (10+ km)
Ceiling: 35000 feet AGL
Clouds: broken clouds at 35000 feet AGL
Weather: no significant weather observed at this time

METAR text: ETHB 240320Z 14003KT 9999 BKN340 17/11 Q1022 BLU+
Conditions at: ETHB (BUCKEBURG(GER-AR, DE) observed 0320 UTC 24 June 2019
Temperature: 17.0°C (63°F)
Dewpoint: 11.0°C (52°F) [RH = 68%]
Pressure (altimeter): 30.18 inches Hg (1022.0 mb)
Winds: from the SE (140 degrees) at 3 MPH (3 knots; 1.5 m/s)
Visibility: 6 or more miles (10+ km)
Ceiling: 34000 feet AGL
Clouds: broken clouds at 34000 feet AGL
Weather: no significant weather observed at this time

METAR text: ETHB 240220Z 07004KT 9999 BKN350 19/11 Q1021 BLU+
Conditions at: ETHB (BUCKEBURG(GER-AR, DE) observed 0220 UTC 24 June 2019
Temperature: 19.0°C (66°F)
Dewpoint: 11.0°C (52°F) [RH = 60%]
Pressure (altimeter): 30.15 inches Hg (1021.0 mb)
Winds: from the ENE (70 degrees) at 5 MPH (4 knots; 2.1 m/s)
Visibility: 6 or more miles (10+ km)
Ceiling: 35000 feet AGL
Clouds: broken clouds at 35000 feet AGL
Weather: no significant weather observed at this time

METAR text: ETHB 240120Z 30005KT 9999 BKN290 20/11 Q1021 BLU+
Conditions at: ETHB (BUCKEBURG(GER-AR, DE) observed 0120 UTC 24 June 2019
Temperature: 20.0°C (68°F)
Dewpoint: 11.0°C (52°F) [RH = 56%]
Pressure (altimeter): 30.15 inches Hg (1021.0 mb)
Winds: from the WNW (300 degrees) at 6 MPH (5 knots; 2.6 m/s)
Visibility: 6 or more miles (10+ km)
Ceiling: 29000 feet AGL
Clouds: broken clouds at 29000 feet AGL
Weather: no significant weather observed at this time

METAR text: ETHB 240020Z 12013KT 9999 BKN310 22/10 Q1021 BLU+
Conditions at: ETHB (BUCKEBURG(GER-AR, DE) observed 0020 UTC 24 June 2019
Temperature: 22.0°C (72°F)
Dewpoint: 10.0°C (50°F) [RH = 46%]
Pressure (altimeter): 30.15 inches Hg (1021.0 mb)
Winds: from the ESE (120 degrees) at 15 MPH (13 knots; 6.7 m/s)
Visibility: 6 or more miles (10+ km)
Ceiling: 31000 feet AGL
Clouds: broken clouds at 31000 feet AGL
Weather: no significant weather observed at this time

METAR text: ETHB 232320Z 12004KT 9999 BKN310 20/11 Q1021 BLU+
Conditions at: ETHB (BUCKEBURG(GER-AR, DE) observed 2320 UTC 23 June 2019
Temperature: 20.0°C (68°F)
Dewpoint: 11.0°C (52°F) [RH = 56%]
Pressure (altimeter): 30.15 inches Hg (1021.0 mb)
Winds: from the ESE (120 degrees) at 5 MPH (4 knots; 2.1 m/s)
Visibility: 6 or more miles (10+ km)
Ceiling: 31000 feet AGL
Clouds: broken clouds at 31000 feet AGL
Weather: no significant weather observed at this time

METAR text: ETHB 232220Z 04004KT 9999 BKN320 21/11 Q1021 BLU+
Conditions at: ETHB (BUCKEBURG(GER-AR, DE) observed 2220 UTC 23 June 2019
Temperature: 21.0°C (70°F)
Dewpoint: 11.0°C (52°F) [RH = 53%]
Pressure (altimeter): 30.15 inches Hg (1021.0 mb)
Winds: from the NE (40 degrees) at 5 MPH (4 knots; 2.1 m/s)
Visibility: 6 or more miles (10+ km)
Ceiling: 32000 feet AGL
Clouds: broken clouds at 32000 feet AGL
Weather: no significant weather observed at this time

METAR text: ETHB 232120Z 06007KT 9999 BKN330 22/11 Q1021 BLU+
Conditions at: ETHB (BUCKEBURG(GER-AR, DE) observed 2120 UTC 23 June 2019
Temperature: 22.0°C (72°F)
Dewpoint: 11.0°C (52°F) [RH = 50%]
Pressure (altimeter): 30.15 inches Hg (1021.0 mb)
Winds: from the ENE (60 degrees) at 8 MPH (7 knots; 3.6 m/s)
Visibility: 6 or more miles (10+ km)
Ceiling: 33000 feet AGL
Clouds: broken clouds at 33000 feet AGL
Weather: no significant weather observed at this time

METAR text: ETHB 232020Z 07005KT 9999 BKN360 22/10 Q1020 BLU+
Conditions at: ETHB (BUCKEBURG(GER-AR, DE) observed 2020 UTC 23 June 2019
Temperature: 22.0°C (72°F)
Dewpoint: 10.0°C (50°F) [RH = 46%]
Pressure (altimeter): 30.12 inches Hg (1020.0 mb)
Winds: from the ENE (70 degrees) at 6 MPH (5 knots; 2.6 m/s)
Visibility: 6 or more miles (10+ km)
Ceiling: 36000 feet AGL
Clouds: broken clouds at 36000 feet AGL
Weather: no significant weather observed at this time

METAR text: ETHB 231920Z 10006KT 9999 SCT370 23/10 Q1020 BLU+
Conditions at: ETHB (BUCKEBURG(GER-AR, DE) observed 1920 UTC 23 June 2019
Temperature: 23.0°C (73°F)
Dewpoint: 10.0°C (50°F) [RH = 44%]
Pressure (altimeter): 30.12 inches Hg (1020.0 mb)
Winds: from the E (100 degrees) at 7 MPH (6 knots; 3.1 m/s)
Visibility: 6 or more miles (10+ km)
Ceiling: at least 12,000 feet AGL
Clouds: scattered clouds at 37000 feet AGL
Weather: no significant weather observed at this time

METAR text: ETHB 231820Z 11008KT 9999 FEW370 25/10 Q1020 BLU+
Conditions at: ETHB (BUCKEBURG(GER-AR, DE) observed 1820 UTC 23 June 2019
Temperature: 25.0°C (77°F)
Dewpoint: 10.0°C (50°F) [RH = 39%]
Pressure (altimeter): 30.12 inches Hg (1020.0 mb)
Winds: from the ESE (110 degrees) at 9 MPH (8 knots; 4.1 m/s)
Visibility: 6 or more miles (10+ km)
Ceiling: at least 12,000 feet AGL
Clouds: few clouds at 37000 feet AGL
Weather: no significant weather observed at this time

METAR text: ETHB 231720Z 10012KT 9999 FEW064 SCT370 26/10 Q1020 BLU+
Conditions at: ETHB (BUCKEBURG(GER-AR, DE) observed 1720 UTC 23 June 2019
Temperature: 26.0°C (79°F)
Dewpoint: 10.0°C (50°F) [RH = 37%]
Pressure (altimeter): 30.12 inches Hg (1020.0 mb)
Winds: from the E (100 degrees) at 14 MPH (12 knots; 6.2 m/s)
Visibility: 6 or more miles (10+ km)
Ceiling: at least 12,000 feet AGL
Clouds: few clouds at 6400 feet AGL
scattered clouds at 37000 feet AGL
Weather: no significant weather observed at this time

METAR text: ETHB 231620Z 12011KT 9999 FEW064 SCT370 27/11 Q1020 BLU+
Conditions at: ETHB (BUCKEBURG(GER-AR, DE) observed 1620 UTC 23 June 2019
Temperature: 27.0°C (81°F)
Dewpoint: 11.0°C (52°F) [RH = 37%]
Pressure (altimeter): 30.12 inches Hg (1020.0 mb)
Winds: from the ESE (120 degrees) at 13 MPH (11 knots; 5.7 m/s)
Visibility: 6 or more miles (10+ km)
Ceiling: at least 12,000 feet AGL
Clouds: few clouds at 6400 feet AGL
scattered clouds at 37000 feet AGL
Weather: no significant weather observed at this time

METAR text: ETHB 231520Z AUTO 10012KT 8000 // ////// 27/11 Q1020 ///
Conditions at: ETHB (BUCKEBURG(GER-AR, DE) observed 1520 UTC 23 June 2019
Temperature: 27.0°C (81°F)
Dewpoint: 11.0°C (52°F) [RH = 37%]
Pressure (altimeter): 30.12 inches Hg (1020.0 mb)
Winds: from the E (100 degrees) at 14 MPH (12 knots; 6.2 m/s)
Visibility: 5 miles ( 8 km)
Ceiling: unknown
Clouds: missing
Weather: no significant weather observed at this time

METAR text: ETHB 231420Z AUTO 12013KT 8000 // ////// 27/11 Q1020 ///
Conditions at: ETHB (BUCKEBURG(GER-AR, DE) observed 1420 UTC 23 June 2019
Temperature: 27.0°C (81°F)
Dewpoint: 11.0°C (52°F) [RH = 37%]
Pressure (altimeter): 30.12 inches Hg (1020.0 mb)
Winds: from the ESE (120 degrees) at 15 MPH (13 knots; 6.7 m/s)
Visibility: 5 miles ( 8 km)
Ceiling: unknown
Clouds: missing
Weather: no significant weather observed at this time

METAR text: ETHB 231320Z AUTO 11012KT 7000 // ////// 27/10 Q1021 ///
Conditions at: ETHB (BUCKEBURG(GER-AR, DE) observed 1320 UTC 23 June 2019
Temperature: 27.0°C (81°F)
Dewpoint: 10.0°C (50°F) [RH = 34%]
Pressure (altimeter): 30.15 inches Hg (1021.0 mb)
Winds: from the ESE (110 degrees) at 14 MPH (12 knots; 6.2 m/s)
Visibility: 4 miles ( 7 km)
Ceiling: unknown
Clouds: missing
Weather: no significant weather observed at this time

METAR text: ETHB 231220Z AUTO 11012KT 6000 // ////// 27/11 Q1021 ///
Conditions at: ETHB (BUCKEBURG(GER-AR, DE) observed 1220 UTC 23 June 2019
Temperature: 27.0°C (81°F)
Dewpoint: 11.0°C (52°F) [RH = 37%]
Pressure (altimeter): 30.15 inches Hg (1021.0 mb)
Winds: from the ESE (110 degrees) at 14 MPH (12 knots; 6.2 m/s)
Visibility: 4 miles ( 6 km)
Ceiling: unknown
Clouds: missing
Weather: no significant weather observed at this time

METAR text: ETHB 231120Z AUTO 11012KT 7000 // ////// 26/12 Q1021 ///
Conditions at: ETHB (BUCKEBURG(GER-AR, DE) observed 1120 UTC 23 June 2019
Temperature: 26.0°C (79°F)
Dewpoint: 12.0°C (54°F) [RH = 42%]
Pressure (altimeter): 30.15 inches Hg (1021.0 mb)
Winds: from the ESE (110 degrees) at 14 MPH (12 knots; 6.2 m/s)
Visibility: 4 miles ( 7 km)
Ceiling: unknown
Clouds: missing
Weather: no significant weather observed at this time

METAR text: ETHB 231020Z AUTO 06009KT 6000 // ////// 25/15 Q1021 ///
Conditions at: ETHB (BUCKEBURG(GER-AR, DE) observed 1020 UTC 23 June 2019
Temperature: 25.0°C (77°F)
Dewpoint: 15.0°C (59°F) [RH = 54%]
Pressure (altimeter): 30.15 inches Hg (1021.0 mb)
Winds: from the ENE (60 degrees) at 10 MPH (9 knots; 4.6 m/s)
Visibility: 4 miles ( 6 km)
Ceiling: unknown
Clouds: missing
Weather: no significant weather observed at this time

METAR text: ETHB 230920Z AUTO 04008KT 7000 // ////// 23/15 Q1021 ///
Conditions at: ETHB (BUCKEBURG(GER-AR, DE) observed 0920 UTC 23 June 2019
Temperature: 23.0°C (73°F)
Dewpoint: 15.0°C (59°F) [RH = 61%]
Pressure (altimeter): 30.15 inches Hg (1021.0 mb)
Winds: from the NE (40 degrees) at 9 MPH (8 knots; 4.1 m/s)
Visibility: 4 miles ( 7 km)
Ceiling: unknown
Clouds: missing
Weather: no significant weather observed at this time

METAR text: ETHB 230820Z AUTO 03005KT 6000 // ////// 22/15 Q1021 ///
Conditions at: ETHB (BUCKEBURG(GER-AR, DE) observed 0820 UTC 23 June 2019
Temperature: 22.0°C (72°F)
Dewpoint: 15.0°C (59°F) [RH = 65%]
Pressure (altimeter): 30.15 inches Hg (1021.0 mb)
Winds: from the NNE (30 degrees) at 6 MPH (5 knots; 2.6 m/s)
Visibility: 4 miles ( 6 km)
Ceiling: unknown
Clouds: missing
Weather: no significant weather observed at this time

METAR text: ETHB 230720Z AUTO 05005KT 6000 // ////// 20/14 Q1021 ///
Conditions at: ETHB (BUCKEBURG(GER-AR, DE) observed 0720 UTC 23 June 2019
Temperature: 20.0°C (68°F)
Dewpoint: 14.0°C (57°F) [RH = 68%]
Pressure (altimeter): 30.15 inches Hg (1021.0 mb)
Winds: from the NE (50 degrees) at 6 MPH (5 knots; 2.6 m/s)
Visibility: 4 miles ( 6 km)
Ceiling: unknown
Clouds: missing
Weather: no significant weather observed at this time

METAR text: ETHB 230620Z AUTO 08005KT 7000 // ////// 18/13 Q1021 ///
Conditions at: ETHB (BUCKEBURG(GER-AR, DE) observed 0620 UTC 23 June 2019
Temperature: 18.0°C (64°F)
Dewpoint: 13.0°C (55°F) [RH = 73%]
Pressure (altimeter): 30.15 inches Hg (1021.0 mb)
Winds: from the E (80 degrees) at 6 MPH (5 knots; 2.6 m/s)
Visibility: 4 miles ( 7 km)
Ceiling: unknown
Clouds: missing
Weather: no significant weather observed at this time

Forecast for: ETHB (BUCKEBURG(GER-AR, DE)
Text: TAF ETHB 241610Z 2417/2502 10007KT 9999 NSW FEW070 SCT350 CANCEL 1700
Forecast period: 1700 UTC 24 June 2019 to 0200 UTC 25 June 2019
Forecast type: FROM: standard forecast or significant change
Winds: from the E (100 degrees) at 8 MPH (7 knots; 3.6 m/s)
Visibility: 6 or more miles 10+ km)
Ceiling: at least 12,000 feet AGL
Clouds: few clouds at 7000 feet AGL
scattered clouds at 35000 feet AGL
Weather: NSW  (no significant weather)